KOGB

Orangeburg Municipal Airport

Orangeburg, South Carolina, USA
METAR KOGB 181253Z AUTO 00000KT CLR 03/02 A3011 RMK AO2 SLP195 T00280017 $
Observed Flight Rules
Dec-18 @ 12:53 UTC (23 minutes ago)
Clouds
  • Clear skies
Temperatures Readings
Current 3°C / 37°F
Dewpoint 2°C / 36°F
Humidity 93%
Altimeter 30.11" Hg
Pressure 1019.5 hPa
Elevation 59
METAR KOGB 181253Z AUTO 00000KT CLR 03/02 A3011 RMK AO2 SLP195 T00280017 $
Observed Flight Rules
Dec-18 @ 12:53 UTC
(23 minutes ago)
Clouds
  • Clear skies
Temperature Dewpoint
3°C / 37°F 2°C / 36°F
Humidity Altimeter Pressure
93% 30.11" Hg 1019.5 hPa